createdAt,value
2023-04-16T00:00:30.158Z,100.0
2023-04-16T00:05:30.139Z,100.0
2023-04-16T00:10:30.135Z,100.0
2023-04-16T00:15:30.133Z,100.0
2023-04-16T00:20:30.145Z,100.0
2023-04-16T00:25:30.148Z,100.0
2023-04-16T00:30:30.280Z,100.0
2023-04-16T00:35:30.153Z,100.0
2023-04-16T00:40:30.175Z,100.0
2023-04-16T00:50:30.159Z,100.0
2023-04-16T00:55:30.168Z,100.0
2023-04-16T01:00:30.234Z,100.0
2023-04-16T01:05:30.167Z,100.0
2023-04-16T01:10:30.177Z,100.0
2023-04-16T01:15:30.184Z,100.0
2023-04-16T01:25:30.189Z,100.0
2023-04-16T01:30:30.291Z,100.0
2023-04-16T01:35:30.203Z,100.0
2023-04-16T01:40:30.208Z,100.0
2023-04-16T01:45:30.202Z,100.0
2023-04-16T01:50:30.202Z,100.0
2023-04-16T01:55:30.209Z,100.0
2023-04-16T02:05:30.262Z,100.0
2023-04-16T02:10:30.231Z,100.0
2023-04-16T02:15:30.210Z,100.0
2023-04-16T02:20:30.225Z,100.0
2023-04-16T02:30:30.223Z,100.0
2023-04-16T02:35:30.278Z,100.0
2023-04-16T02:40:30.232Z,100.0
2023-04-16T02:45:30.226Z,100.0
2023-04-16T03:00:30.247Z,100.0
2023-04-16T03:05:30.293Z,100.0
2023-04-16T03:10:30.242Z,100.0
2023-04-16T03:15:30.277Z,100.0
2023-04-16T03:25:30.258Z,100.0
2023-04-16T03:30:30.261Z,100.0
2023-04-16T03:35:30.284Z,100.0
2023-04-16T03:40:30.263Z,100.0
2023-04-16T03:50:30.280Z,100.0
2023-04-16T03:55:30.277Z,100.0
2023-04-16T04:05:30.314Z,100.0
2023-04-16T04:15:30.289Z,100.0
2023-04-16T04:20:30.290Z,100.0
2023-04-16T04:25:30.290Z,100.0
2023-04-16T04:30:30.290Z,100.0
2023-04-16T04:35:30.330Z,100.0
2023-04-16T04:40:30.297Z,100.0
2023-04-16T04:45:31.830Z,100.0
2023-04-16T04:50:30.307Z,100.0
2023-04-16T04:55:30.306Z,100.0
2023-04-16T05:00:30.302Z,100.0
2023-04-16T05:05:30.345Z,100.0
2023-04-16T05:15:30.324Z,100.0
2023-04-16T05:20:30.325Z,100.0
2023-04-16T05:25:30.340Z,100.0
2023-04-16T05:35:30.364Z,100.0
2023-04-16T05:40:30.359Z,100.0
2023-04-16T05:45:30.336Z,100.0
2023-04-16T05:50:30.338Z,100.0
2023-04-16T05:55:30.349Z,100.0
2023-04-16T06:00:30.363Z,100.0
2023-04-16T06:05:30.412Z,100.0
2023-04-16T06:10:30.343Z,100.0
2023-04-16T06:20:30.386Z,100.0
2023-04-16T06:25:30.357Z,100.0
2023-04-16T06:30:30.373Z,100.0
2023-04-16T06:35:30.373Z,100.0
2023-04-16T06:40:30.370Z,100.0
2023-04-16T06:45:30.369Z,100.0
2023-04-16T06:50:30.401Z,100.0
2023-04-16T06:55:30.373Z,100.0
2023-04-16T07:00:30.402Z,100.0
2023-04-16T07:05:30.452Z,100.0
2023-04-16T07:10:30.415Z,100.0
2023-04-16T07:15:30.396Z,100.0
2023-04-16T07:20:30.425Z,100.0
2023-04-16T07:25:30.386Z,100.0
2023-04-16T07:30:30.395Z,100.0
2023-04-16T07:35:30.411Z,100.0
2023-04-16T07:40:30.404Z,100.0
2023-04-16T07:45:30.411Z,100.0
2023-04-16T07:50:30.446Z,100.0
2023-04-16T07:55:30.411Z,100.0
2023-04-16T08:00:30.418Z,100.0
2023-04-16T08:05:30.425Z,100.0
2023-04-16T08:10:30.420Z,100.0
2023-04-16T08:15:30.440Z,100.0
2023-04-16T08:20:30.449Z,100.0
2023-04-16T08:25:30.456Z,98.7
2023-04-16T08:30:30.429Z,98.4
2023-04-16T08:35:30.441Z,98.2
2023-04-16T08:40:30.457Z,96.6
2023-04-16T08:45:30.477Z,95.8
2023-04-16T08:50:30.466Z,95.3
2023-04-16T08:55:30.448Z,93.7
2023-04-16T09:00:30.446Z,91.0
2023-04-16T09:05:30.467Z,90.3
2023-04-16T09:10:30.455Z,89.3
2023-04-16T09:15:30.491Z,90.1
2023-04-16T09:20:30.497Z,87.7
2023-04-16T09:25:30.475Z,88.9
2023-04-16T09:30:30.471Z,86.7
2023-04-16T09:35:30.470Z,84.7
2023-04-16T09:40:30.565Z,84.3
2023-04-16T09:45:30.518Z,81.1
2023-04-16T09:50:30.514Z,79.7
2023-04-16T09:55:30.482Z,80.5
2023-04-16T10:00:30.509Z,80.2
2023-04-16T10:05:30.505Z,78.7
2023-04-16T10:10:30.551Z,76.3
2023-04-16T10:15:30.525Z,76.8
2023-04-16T10:20:30.532Z,75.0
2023-04-16T10:25:30.510Z,77.3
2023-04-16T10:30:30.506Z,76.1
2023-04-16T10:35:30.516Z,74.5
2023-04-16T10:40:30.519Z,75.9
2023-04-16T10:45:30.530Z,76.8
2023-04-16T10:50:30.558Z,76.3
2023-04-16T10:55:30.522Z,74.9
2023-04-16T11:00:30.526Z,75.4
2023-04-16T11:05:30.530Z,77.0
2023-04-16T11:10:30.529Z,76.5
2023-04-16T11:15:30.547Z,73.8
2023-04-16T11:20:30.563Z,75.2
2023-04-16T11:25:30.542Z,74.5
2023-04-16T11:30:30.539Z,74.7
2023-04-16T11:35:30.543Z,75.0
2023-04-16T11:40:30.556Z,74.2
2023-04-16T11:45:30.550Z,72.1
2023-04-16T11:50:30.592Z,70.2
2023-04-16T11:55:30.567Z,69.7
2023-04-16T12:00:30.562Z,69.7
2023-04-16T12:05:30.580Z,69.5
2023-04-16T12:10:30.587Z,70.5
2023-04-16T12:15:30.573Z,72.2
2023-04-16T12:20:30.607Z,72.4
2023-04-16T12:25:30.581Z,72.3
2023-04-16T12:30:30.718Z,71.9
2023-04-16T12:35:30.583Z,72.6
2023-04-16T12:40:30.628Z,73.4
2023-04-16T12:45:30.599Z,73.2
2023-04-16T12:50:30.630Z,73.1
2023-04-16T12:55:30.605Z,70.5
2023-04-16T13:00:30.601Z,72.3
2023-04-16T13:05:30.605Z,71.3
2023-04-16T13:10:30.608Z,71.2
2023-04-16T13:15:30.652Z,70.9
2023-04-16T13:20:30.643Z,72.6
2023-04-16T13:25:30.619Z,71.8
2023-04-16T13:30:30.621Z,73.1
2023-04-16T13:35:30.636Z,74.2
2023-04-16T13:40:30.634Z,72.7
2023-04-16T13:45:30.631Z,72.1
2023-04-16T13:50:30.654Z,73.3
2023-04-16T13:55:30.634Z,74.1
2023-04-16T14:00:30.656Z,74.2
2023-04-16T14:05:30.676Z,73.8
2023-04-16T14:10:30.643Z,74.1
2023-04-16T14:15:30.641Z,74.3
2023-04-16T14:20:30.674Z,75.1
2023-04-16T14:25:30.644Z,76.1
2023-04-16T14:30:30.663Z,76.3
2023-04-16T14:35:30.669Z,75.2
2023-04-16T14:40:30.666Z,74.5
2023-04-16T14:45:30.701Z,75.2
2023-04-16T14:50:30.687Z,75.4
2023-04-16T14:55:30.665Z,75.7
2023-04-16T15:00:30.680Z,76.1
2023-04-16T15:05:30.681Z,76.7
2023-04-16T15:10:30.678Z,78.4
2023-04-16T15:15:30.683Z,77.4
2023-04-16T15:20:30.707Z,77.9
2023-04-16T15:25:30.696Z,77.5
2023-04-16T15:30:30.686Z,77.8
2023-04-16T15:35:30.700Z,77.7
2023-04-16T15:40:30.700Z,77.7
2023-04-16T15:45:30.702Z,77.6
2023-04-16T15:50:30.728Z,78.3
2023-04-16T15:55:30.720Z,78.0
2023-04-16T16:00:30.718Z,77.9
2023-04-16T16:05:30.714Z,78.7
2023-04-16T16:10:30.729Z,79.1
2023-04-16T16:15:30.724Z,78.7
2023-04-16T16:20:30.759Z,79.6
2023-04-16T16:25:30.747Z,79.8
2023-04-16T16:30:30.739Z,81.5
2023-04-16T16:35:30.749Z,81.7
2023-04-16T16:40:30.735Z,81.6
2023-04-16T16:45:30.986Z,81.9
2023-04-16T16:50:30.775Z,81.9
2023-04-16T16:55:30.742Z,82.4
2023-04-16T17:00:30.750Z,83.3
2023-04-16T17:05:30.754Z,83.7
2023-04-16T17:10:30.768Z,84.3
2023-04-16T17:15:30.757Z,84.1
2023-04-16T17:20:30.793Z,84.4
2023-04-16T17:25:30.775Z,85.1
2023-04-16T17:30:30.773Z,85.3
2023-04-16T17:35:30.769Z,85.2
2023-04-16T17:40:30.778Z,85.3
2023-04-16T17:45:30.781Z,85.7
2023-04-16T17:50:30.825Z,86.0
2023-04-16T17:55:30.781Z,86.5
2023-04-16T18:00:30.787Z,86.7
2023-04-16T18:05:30.795Z,86.8
2023-04-16T18:10:30.795Z,87.1
2023-04-16T18:15:30.828Z,87.7
2023-04-16T18:20:30.833Z,88.0
2023-04-16T18:25:34.996Z,88.6
2023-04-16T18:30:30.819Z,89.0
2023-04-16T18:35:30.817Z,89.2
2023-04-16T18:40:30.804Z,89.6
2023-04-16T18:45:30.844Z,90.2
2023-04-16T18:50:30.844Z,90.3
2023-04-16T18:55:30.818Z,90.5
2023-04-16T19:00:30.866Z,91.1
2023-04-16T19:05:30.822Z,91.2
2023-04-16T19:10:30.831Z,91.5
2023-04-16T19:15:32.643Z,91.7
2023-04-16T19:20:30.868Z,91.8
2023-04-16T19:25:30.844Z,91.9
2023-04-16T19:30:30.843Z,92.0
2023-04-16T19:35:30.991Z,92.2
2023-04-16T19:40:30.854Z,92.4
2023-04-16T19:45:30.921Z,92.3
2023-04-16T19:50:30.898Z,92.6
2023-04-16T19:55:30.857Z,92.6
2023-04-16T20:00:30.866Z,92.7
2023-04-16T20:05:30.858Z,92.8
2023-04-16T20:10:30.865Z,93.2
2023-04-16T20:15:30.864Z,93.2
2023-04-16T20:20:30.879Z,93.5
2023-04-16T20:25:30.880Z,93.8
2023-04-16T20:35:30.902Z,94.0
2023-04-16T20:40:30.881Z,93.9
2023-04-16T20:45:30.885Z,93.7
2023-04-16T20:50:30.921Z,94.0
2023-04-16T20:55:30.884Z,94.4
2023-04-16T21:00:30.904Z,94.5
2023-04-16T21:05:30.897Z,94.6
2023-04-16T21:20:30.941Z,94.9
2023-04-16T21:30:30.909Z,95.1
2023-04-16T21:35:30.917Z,95.1
2023-04-16T21:40:30.933Z,95.4
2023-04-16T21:45:30.929Z,95.6
2023-04-16T21:50:30.942Z,95.8
2023-04-16T21:55:30.924Z,95.8
2023-04-16T22:00:30.952Z,96.8
2023-04-16T22:05:30.944Z,97.1
2023-04-16T22:10:30.952Z,97.6
2023-04-16T22:15:30.942Z,97.9
2023-04-16T22:20:30.972Z,98.2
2023-04-16T22:25:30.951Z,98.4
2023-04-16T22:30:30.961Z,98.2
2023-04-16T22:45:30.964Z,98.2
2023-04-16T22:50:30.993Z,98.2
2023-04-16T22:55:30.977Z,98.1
2023-04-16T23:00:30.962Z,98.4
2023-04-16T23:05:30.983Z,98.2
2023-04-16T23:10:30.967Z,98.1
2023-04-16T23:15:31.015Z,97.8
2023-04-16T23:20:30.999Z,98.3
2023-04-16T23:25:30.968Z,98.2
2023-04-16T23:30:30.986Z,98.1
2023-04-16T23:35:31.001Z,98.3
2023-04-16T23:40:30.984Z,98.2
2023-04-16T23:45:31.040Z,98.0
2023-04-16T23:50:31.025Z,97.7
2023-04-16T23:55:31.011Z,98.0
